Time;durP1;ratioP1;P1;durP2;ratioP2;P2;SDS_P1;SDS_P2;PMS_P1;PMS_P2;Temp;Humidity;BMP_temperature;BMP_pressure;BME280_temperature;BME280_humidity;BME280_pressure;Samples;Min_cycle;Max_cycle;Signal;HPM_P1;HPM_P2
2023/08/26 09:32:35;;;;;;;8.30;3.38;;;;;;;;;;9713872;29;11622231;-83
2023/08/26 09:43:42;;;;;;;9.05;3.50;;;;;;;;;;9997244;29;20090;-87
2023/08/26 09:48:47;;;;;;;6.88;3.90;;;;;;;;;;10000084;29;20042;-85
2023/08/26 09:53:50;;;;;;;8.23;3.70;;;;;;;;;;9995219;29;20057;-87
2023/08/26 09:58:53;;;;;;;5.72;4.05;;;;;;;;;;9999969;29;20133;-85
2023/08/26 10:04:04;;;;;;;5.68;3.97;;;;;;;;;;9984961;29;20054;-84
2023/08/26 10:09:09;;;;;;;7.75;4.75;;;;;;;;;;9986784;29;20046;-86
2023/08/26 10:14:12;;;;;;;6.20;3.50;;;;;;;;;;10003502;29;20157;-85
2023/08/26 10:19:17;;;;;;;6.75;4.00;;;;;;;;;;10009978;29;20034;-84
2023/08/26 10:24:20;;;;;;;6.30;3.25;;;;;;;;;;9978634;29;20486;-84
2023/08/26 10:29:27;;;;;;;5.00;3.75;;;;;;;;;;10001409;29;20634;-84
2023/08/26 10:34:32;;;;;;;6.97;4.00;;;;;;;;;;9991197;29;20049;-84
2023/08/26 10:39:35;;;;;;;4.57;3.67;;;;;;;;;;9968560;29;20046;-85
2023/08/26 10:44:39;;;;;;;8.25;4.05;;;;;;;;;;9966949;29;20189;-85
2023/08/26 10:49:44;;;;;;;8.02;3.65;;;;;;;;;;9972444;29;20060;-83
2023/08/26 10:54:47;;;;;;;5.35;3.78;;;;;;;;;;9966399;29;20077;-84
2023/08/26 10:59:49;;;;;;;6.65;4.22;;;;;;;;;;9972502;29;20471;-85
2023/08/26 11:04:56;;;;;;;6.55;4.22;;;;;;;;;;9972953;29;20150;-84
2023/08/26 11:09:58;;;;;;;5.38;3.58;;;;;;;;;;9975731;29;20045;-84
2023/08/26 11:15:05;;;;;;;6.78;4.00;;;;;;;;;;9971633;29;20119;-84
2023/08/26 11:20:10;;;;;;;6.72;4.40;;;;;;;;;;9973104;29;20129;-85
2023/08/26 11:25:13;;;;;;;7.10;4.00;;;;;;;;;;9974834;29;20046;-85
2023/08/26 11:30:16;;;;;;;6.20;3.53;;;;;;;;;;9980462;29;20131;-84
2023/08/26 11:35:28;;;;;;;5.82;3.30;;;;;;;;;;9946769;29;20058;-85
2023/08/26 11:40:32;;;;;;;5.90;3.40;;;;;;;;;;9939748;29;20049;-83
2023/08/26 11:45:35;;;;;;;5.35;3.60;;;;;;;;;;9935685;29;20047;-85
2023/08/26 11:50:40;;;;;;;5.50;3.42;;;;;;;;;;9936539;29;20090;-83
2023/08/26 11:55:43;;;;;;;5.95;3.80;;;;;;;;;;9935682;29;20064;-83
2023/08/26 12:00:45;;;;;;;5.72;3.53;;;;;;;;;;9940382;29;20134;-82
2023/08/26 12:05:52;;;;;;;6.07;4.10;;;;;;;;;;9939298;29;20554;-84
2023/08/26 12:10:58;;;;;;;6.22;3.42;;;;;;;;;;9936105;29;20039;-84
2023/08/26 12:16:01;;;;;;;6.38;3.60;;;;;;;;;;9928361;29;20050;-84
2023/08/26 12:21:07;;;;;;;6.53;3.67;;;;;;;;;;9936718;29;20346;-84
2023/08/26 12:26:12;;;;;;;4.63;3.55;;;;;;;;;;9939972;29;20050;-84
2023/08/26 12:31:16;;;;;;;7.00;3.70;;;;;;;;;;9942155;29;20047;-85
2023/08/26 12:36:20;;;;;;;4.15;3.20;;;;;;;;;;9941150;29;20058;-84
2023/08/26 12:41:23;;;;;;;6.20;3.05;;;;;;;;;;9941339;29;20320;-85
2023/08/26 12:46:26;;;;;;;5.20;3.25;;;;;;;;;;9942137;29;20053;-84
2023/08/26 12:51:30;;;;;;;7.43;3.50;;;;;;;;;;9944273;29;20067;-84
2023/08/26 12:56:41;;;;;;;5.72;3.60;;;;;;;;;;9945371;29;20134;-84
2023/08/26 13:01:43;;;;;;;4.47;3.28;;;;;;;;;;9940097;29;20073;-84
2023/08/26 13:06:47;;;;;;;4.43;3.33;;;;;;;;;;9935141;29;20089;-84
2023/08/26 13:11:50;;;;;;;4.47;3.10;;;;;;;;;;9947667;29;20129;-84
2023/08/26 13:16:53;;;;;;;4.35;3.20;;;;;;;;;;9944945;29;20125;-84
2023/08/26 13:21:57;;;;;;;6.93;3.80;;;;;;;;;;9933530;29;20047;-85
2023/08/26 13:27:00;;;;;;;4.75;3.13;;;;;;;;;;9943893;29;20938;-84
2023/08/26 13:32:03;;;;;;;6.53;3.75;;;;;;;;;;9939295;29;20089;-85
2023/08/26 13:37:08;;;;;;;8.50;3.00;;;;;;;;;;9939619;29;20411;-85
2023/08/26 13:42:11;;;;;;;6.38;3.10;;;;;;;;;;9947372;29;20074;-85
2023/08/26 13:47:14;;;;;;;8.48;4.13;;;;;;;;;;9940971;29;20066;-84
2023/08/26 13:52:17;;;;;;;7.35;3.70;;;;;;;;;;9936876;29;20053;-84
2023/08/26 13:57:20;;;;;;;7.40;3.28;;;;;;;;;;9943337;29;20138;-82
2023/08/26 14:02:23;;;;;;;6.63;3.80;;;;;;;;;;9942783;29;20054;-81
2023/08/26 14:07:27;;;;;;;5.05;3.40;;;;;;;;;;9936989;29;20122;-83
2023/08/26 14:12:29;;;;;;;4.63;3.25;;;;;;;;;;9945028;29;20077;-83
2023/08/26 14:17:32;;;;;;;7.18;4.25;;;;;;;;;;9949036;29;20042;-83
2023/08/26 14:22:36;;;;;;;8.45;4.40;;;;;;;;;;9939282;29;20051;-82
2023/08/26 14:27:38;;;;;;;9.32;4.40;;;;;;;;;;9943439;29;20130;-82
2023/08/26 14:32:41;;;;;;;4.03;1.77;;;;;;;;;;9949662;29;20150;-81
2023/08/26 14:37:46;;;;;;;3.55;0.90;;;;;;;;;;9923832;29;20077;-83
2023/08/26 14:42:49;;;;;;;4.05;0.88;;;;;;;;;;9945278;29;20111;-83
2023/08/26 14:47:51;;;;;;;1.77;0.75;;;;;;;;;;9945254;29;20043;-82
2023/08/26 14:52:56;;;;;;;4.22;0.90;;;;;;;;;;9946057;29;20501;-82
2023/08/26 14:58:00;;;;;;;2.90;1.38;;;;;;;;;;9940935;29;20039;-84
2023/08/26 15:03:03;;;;;;;5.33;1.00;;;;;;;;;;9938546;29;20086;-82
2023/08/26 15:08:07;;;;;;;3.25;1.10;;;;;;;;;;9945630;29;20103;-82
2023/08/26 15:13:10;;;;;;;4.20;0.95;;;;;;;;;;9949446;29;20053;-82
2023/08/26 15:18:12;;;;;;;2.43;1.03;;;;;;;;;;9943607;29;20435;-80
2023/08/26 15:23:17;;;;;;;4.82;1.05;;;;;;;;;;9942702;29;20674;-80
2023/08/26 15:28:20;;;;;;;1.13;0.63;;;;;;;;;;9942800;29;20125;-81
2023/08/26 15:33:22;;;;;;;2.42;0.88;;;;;;;;;;9945366;29;20054;-78
2023/08/26 15:38:26;;;;;;;1.88;1.10;;;;;;;;;;9930306;29;20891;-79
2023/08/26 15:43:30;;;;;;;1.27;0.80;;;;;;;;;;9932739;29;20078;-80
2023/08/26 15:48:35;;;;;;;3.92;0.95;;;;;;;;;;9931263;29;20101;-80
2023/08/26 15:53:39;;;;;;;1.83;0.90;;;;;;;;;;9935372;29;20055;-80
2023/08/26 15:58:42;;;;;;;4.43;1.20;;;;;;;;;;9944918;29;20053;-82
2023/08/26 16:03:45;;;;;;;1.83;0.90;;;;;;;;;;9931959;29;20129;-80
2023/08/26 16:08:49;;;;;;;4.00;1.00;;;;;;;;;;9926283;29;20043;-79
2023/08/26 16:13:55;;;;;;;4.43;1.45;;;;;;;;;;9927412;29;20100;-79
2023/08/26 16:18:57;;;;;;;5.40;1.33;;;;;;;;;;9934775;29;20040;-79
2023/08/26 16:24:01;;;;;;;2.85;1.40;;;;;;;;;;9928968;29;20116;-77
2023/08/26 16:29:04;;;;;;;5.07;1.80;;;;;;;;;;9925302;29;20161;-79
2023/08/26 16:34:07;;;;;;;7.47;2.10;;;;;;;;;;9930010;29;20125;-77
2023/08/26 16:39:11;;;;;;;3.90;1.90;;;;;;;;;;9932871;29;20493;-80
2023/08/26 16:44:15;;;;;;;5.25;2.10;;;;;;;;;;9929223;29;20055;-80
2023/08/26 16:49:18;;;;;;;4.60;2.07;;;;;;;;;;9924542;29;20043;-78
2023/08/26 16:54:22;;;;;;;5.33;2.80;;;;;;;;;;9923403;29;20704;-82
2023/08/26 16:59:25;;;;;;;5.05;2.13;;;;;;;;;;9931749;29;20098;-80
2023/08/26 17:04:28;;;;;;;9.13;2.45;;;;;;;;;;9936161;29;20074;-79
2023/08/26 17:09:33;;;;;;;5.35;2.10;;;;;;;;;;9931382;29;20050;-80
2023/08/26 17:14:35;;;;;;;6.53;2.00;;;;;;;;;;9932759;29;20061;-79
2023/08/26 17:19:38;;;;;;;4.65;2.38;;;;;;;;;;9933939;29;20083;-77
2023/08/26 17:24:42;;;;;;;6.63;2.70;;;;;;;;;;9929899;29;20112;-80
2023/08/26 17:29:48;;;;;;;6.10;2.00;;;;;;;;;;9923164;29;20046;-78
2023/08/26 17:34:51;;;;;;;3.90;1.77;;;;;;;;;;9934629;29;20158;-79
2023/08/26 17:39:55;;;;;;;4.55;1.65;;;;;;;;;;9929334;29;20529;-79
2023/08/26 17:44:58;;;;;;;2.58;1.35;;;;;;;;;;9931384;29;20081;-78
2023/08/26 17:50:00;;;;;;;5.63;2.50;;;;;;;;;;9926787;29;20513;-81
2023/08/26 17:55:05;;;;;;;1.93;1.27;;;;;;;;;;9935222;29;20150;-80
2023/08/26 18:00:08;;;;;;;3.65;1.90;;;;;;;;;;9934239;29;20303;-81
2023/08/26 18:05:11;;;;;;;6.80;3.45;;;;;;;;;;9924412;29;20046;-81
2023/08/26 18:10:15;;;;;;;4.78;1.63;;;;;;;;;;9934611;29;20138;-87
2023/08/26 18:15:17;;;;;;;5.82;2.28;;;;;;;;;;9924082;29;20087;-86
2023/08/26 18:20:20;;;;;;;5.78;3.10;;;;;;;;;;9932036;29;20092;-86
2023/08/26 18:25:24;;;;;;;4.20;2.20;;;;;;;;;;9934732;29;20106;-82
2023/08/26 18:30:26;;;;;;;3.75;1.60;;;;;;;;;;9924118;29;20130;-83
2023/08/26 18:35:29;;;;;;;4.47;2.07;;;;;;;;;;9928659;29;20133;-81
2023/08/26 18:40:33;;;;;;;3.40;2.10;;;;;;;;;;9932773;29;20089;-80
2023/08/26 18:45:36;;;;;;;5.35;2.53;;;;;;;;;;9929088;29;20146;-82
2023/08/26 18:50:39;;;;;;;3.65;1.63;;;;;;;;;;9916178;29;20042;-81
2023/08/26 18:55:43;;;;;;;4.70;2.03;;;;;;;;;;9920199;29;20538;-82
2023/08/26 19:00:46;;;;;;;3.50;1.40;;;;;;;;;;9922523;29;20042;-80
2023/08/26 19:05:49;;;;;;;4.65;2.00;;;;;;;;;;9927142;29;20054;-81
2023/08/26 19:10:57;;;;;;;5.28;2.17;;;;;;;;;;9927129;29;20035;-79
2023/08/26 19:15:59;;;;;;;2.35;1.35;;;;;;;;;;9916423;29;20088;-81
2023/08/26 19:21:02;;;;;;;1.07;0.83;;;;;;;;;;9938012;29;20042;-81
2023/08/26 19:26:07;;;;;;;6.87;2.27;;;;;;;;;;9933078;29;20053;-81
2023/08/26 19:31:10;;;;;;;3.75;1.65;;;;;;;;;;9930212;29;20308;-81
2023/08/26 19:36:12;;;;;;;2.75;1.55;;;;;;;;;;9931620;29;20513;-80
2023/08/26 19:41:18;;;;;;;5.47;1.87;;;;;;;;;;9927618;29;20066;-80
2023/08/26 19:46:20;;;;;;;7.97;3.10;;;;;;;;;;9940063;29;20057;-81
2023/08/26 19:51:23;;;;;;;6.13;1.88;;;;;;;;;;9926208;29;20039;-80
2023/08/26 19:56:27;;;;;;;6.17;2.20;;;;;;;;;;9926638;29;20058;-82
2023/08/26 20:01:30;;;;;;;3.33;1.30;;;;;;;;;;9936314;29;20312;-80
2023/08/26 20:06:33;;;;;;;2.90;1.70;;;;;;;;;;9935989;29;20040;-78
2023/08/26 20:11:36;;;;;;;4.00;1.50;;;;;;;;;;9934608;29;20059;-78
2023/08/26 20:16:40;;;;;;;4.75;2.08;;;;;;;;;;9927937;29;20053;-77
2023/08/26 20:21:42;;;;;;;3.85;1.70;;;;;;;;;;9934837;29;20053;-78
2023/08/26 20:26:48;;;;;;;3.03;1.15;;;;;;;;;;9935061;29;20076;-78
2023/08/26 20:31:52;;;;;;;3.22;1.73;;;;;;;;;;9933078;29;20160;-78
2023/08/26 20:36:54;;;;;;;3.20;1.70;;;;;;;;;;9937181;29;20125;-78
2023/08/26 20:41:59;;;;;;;1.80;0.87;;;;;;;;;;9938299;29;20108;-79
2023/08/26 20:47:04;;;;;;;5.43;1.70;;;;;;;;;;9941468;29;20698;-78
2023/08/26 20:52:07;;;;;;;4.97;1.93;;;;;;;;;;9932022;29;20120;-80
2023/08/26 20:57:11;;;;;;;2.70;1.63;;;;;;;;;;9933104;29;20058;-79
2023/08/26 21:02:14;;;;;;;5.93;1.80;;;;;;;;;;9937202;29;20074;-78
2023/08/26 21:07:16;;;;;;;3.90;1.53;;;;;;;;;;9937228;29;20115;-79
2023/08/26 21:12:20;;;;;;;2.63;1.40;;;;;;;;;;9941457;29;20146;-79
2023/08/26 21:17:23;;;;;;;2.55;1.10;;;;;;;;;;9937624;29;20150;-77
2023/08/26 21:22:25;;;;;;;2.77;1.40;;;;;;;;;;9946687;29;20042;-78
2023/08/26 21:27:29;;;;;;;1.83;1.30;;;;;;;;;;9939622;29;20051;-78
2023/08/26 21:32:33;;;;;;;3.90;1.10;;;;;;;;;;9935035;29;20058;-78
2023/08/26 21:37:37;;;;;;;2.88;1.67;;;;;;;;;;9938078;29;20051;-77
2023/08/26 21:42:41;;;;;;;4.57;1.88;;;;;;;;;;9934638;29;20108;-79
2023/08/26 21:47:44;;;;;;;5.50;1.60;;;;;;;;;;9935695;29;20129;-78
2023/08/26 21:52:46;;;;;;;3.00;1.50;;;;;;;;;;9916528;29;20046;-78
2023/08/26 21:58:01;;;;;;;3.08;1.70;;;;;;;;;;9916112;29;20051;-79
2023/08/26 22:03:04;;;;;;;3.63;1.80;;;;;;;;;;9927948;29;20508;-78
2023/08/26 22:08:07;;;;;;;8.00;1.95;;;;;;;;;;9928610;29;20062;-78
2023/08/26 22:13:11;;;;;;;3.10;1.23;;;;;;;;;;9926324;29;20039;-78
2023/08/26 22:18:14;;;;;;;2.83;1.20;;;;;;;;;;9925248;29;20086;-78
2023/08/26 22:23:16;;;;;;;1.17;0.87;;;;;;;;;;9928875;29;20491;-77
2023/08/26 22:28:20;;;;;;;3.00;1.13;;;;;;;;;;9928521;29;20051;-78
2023/08/26 22:33:23;;;;;;;2.53;1.55;;;;;;;;;;9934560;29;20576;-79
2023/08/26 22:38:26;;;;;;;3.17;1.50;;;;;;;;;;9927715;29;20509;-79
2023/08/26 22:43:30;;;;;;;2.50;1.20;;;;;;;;;;9931725;29;20318;-77
2023/08/26 22:48:32;;;;;;;3.08;1.30;;;;;;;;;;9935551;29;20066;-78
2023/08/26 22:53:35;;;;;;;3.45;1.38;;;;;;;;;;9938726;29;20050;-77
2023/08/26 22:58:42;;;;;;;2.25;1.20;;;;;;;;;;9943154;29;20059;-76
2023/08/26 23:03:45;;;;;;;5.97;1.65;;;;;;;;;;9933509;29;20074;-78
2023/08/26 23:08:47;;;;;;;9.77;1.77;;;;;;;;;;9922017;29;20070;-77
2023/08/26 23:13:51;;;;;;;2.10;1.47;;;;;;;;;;9931276;29;20183;-77
2023/08/26 23:18:54;;;;;;;1.27;0.82;;;;;;;;;;9929828;29;20079;-77
2023/08/26 23:23:57;;;;;;;3.47;1.00;;;;;;;;;;9929320;29;20053;-77
2023/08/26 23:29:01;;;;;;;2.57;1.20;;;;;;;;;;9936024;29;20598;-77
2023/08/26 23:34:03;;;;;;;2.05;1.10;;;;;;;;;;9933130;29;20043;-77
2023/08/26 23:39:19;;;;;;;2.13;1.25;;;;;;;;;;9930467;29;20054;-75
2023/08/26 23:44:23;;;;;;;3.03;1.40;;;;;;;;;;9929921;29;20111;-76
2023/08/26 23:49:26;;;;;;;4.05;1.42;;;;;;;;;;9929681;29;20198;-76
2023/08/26 23:54:28;;;;;;;4.73;1.50;;;;;;;;;;9939954;29;20042;-76
2023/08/26 23:59:33;;;;;;;3.27;1.40;;;;;;;;;;9942674;29;20126;-76
